createdAt,value
2023-03-29T00:02:55.577Z,22.29
2023-03-29T00:10:55.615Z,22.69
2023-03-29T00:18:55.935Z,22.70
2023-03-29T00:26:55.954Z,22.72
2023-03-29T00:34:55.729Z,22.72
2023-03-29T00:42:55.475Z,22.70
2023-03-29T00:50:55.215Z,22.71
2023-03-29T00:58:55.237Z,22.70
2023-03-29T01:06:55.548Z,22.71
2023-03-29T01:14:55.723Z,22.71
2023-03-29T01:22:55.498Z,22.70
2023-03-29T01:26:56.348Z,22.71
2023-03-29T01:30:56.229Z,22.71
2023-03-29T01:34:56.124Z,22.71
2023-03-29T01:38:56.015Z,22.71
2023-03-29T01:42:55.906Z,22.71
2023-03-29T01:46:55.764Z,22.70
2023-03-29T01:50:55.658Z,22.69
2023-03-29T01:54:55.567Z,22.68
2023-03-29T01:58:55.425Z,22.68
2023-03-29T02:02:55.406Z,22.68
2023-03-29T02:06:55.219Z,22.68
2023-03-29T02:10:55.181Z,22.68
2023-03-29T02:14:55.300Z,22.68
2023-03-29T02:18:55.234Z,22.68
2023-03-29T02:22:55.114Z,22.68
2023-03-29T02:26:55.013Z,22.68
2023-03-29T02:30:54.861Z,22.67
2023-03-29T02:34:54.730Z,22.67
2023-03-29T02:38:54.619Z,22.67
2023-03-29T02:42:54.598Z,22.67
2023-03-29T02:46:54.495Z,22.67
2023-03-29T02:50:54.356Z,22.67
2023-03-29T02:54:54.241Z,22.67
2023-03-29T02:58:54.155Z,22.68
2023-03-29T03:02:54.120Z,22.67
2023-03-29T03:06:53.926Z,22.67
2023-03-29T03:10:53.949Z,22.68
2023-03-29T03:14:54.110Z,22.68
2023-03-29T03:18:54.213Z,22.68
2023-03-29T03:22:54.317Z,22.69
2023-03-29T03:26:54.423Z,22.69
2023-03-29T03:30:54.538Z,22.70
2023-03-29T03:34:54.388Z,22.68
2023-03-29T03:38:54.268Z,22.70
2023-03-29T03:42:54.159Z,22.69
2023-03-29T03:46:54.038Z,22.69
2023-03-29T03:50:53.922Z,22.70
2023-03-29T03:54:53.818Z,22.69
2023-03-29T03:58:53.702Z,22.69
2023-03-29T04:02:53.936Z,22.68
2023-03-29T04:06:53.721Z,22.68
2023-03-29T04:10:53.606Z,22.68
2023-03-29T04:14:53.469Z,22.67
2023-03-29T04:18:53.519Z,22.68
2023-03-29T04:22:53.270Z,22.68
2023-03-29T04:26:53.161Z,22.69
2023-03-29T04:30:53.222Z,22.69
2023-03-29T04:34:53.110Z,22.69
2023-03-29T04:38:52.880Z,22.68
2023-03-29T04:42:52.759Z,22.68
2023-03-29T04:46:52.659Z,22.68
2023-03-29T04:50:52.491Z,22.68
2023-03-29T04:54:52.344Z,22.67
2023-03-29T04:58:52.355Z,22.67
2023-03-29T05:02:52.532Z,22.67
2023-03-29T05:06:52.958Z,22.66
2023-03-29T05:10:52.632Z,22.66
2023-03-29T05:14:52.738Z,22.66
2023-03-29T05:18:52.953Z,22.67
2023-03-29T05:22:52.521Z,22.66
2023-03-29T05:26:52.349Z,22.66
2023-03-29T05:30:52.434Z,22.65
2023-03-29T05:34:52.450Z,22.66
2023-03-29T05:38:52.488Z,22.66
2023-03-29T05:42:52.434Z,22.70
2023-03-29T05:46:52.437Z,22.72
2023-03-29T05:50:52.444Z,22.76
2023-03-29T05:54:52.224Z,22.78
2023-03-29T05:58:54.891Z,22.84
2023-03-29T06:02:52.078Z,22.90
2023-03-29T06:06:51.958Z,23.01
2023-03-29T06:10:52.059Z,23.11
2023-03-29T06:14:51.971Z,23.19
2023-03-29T06:18:51.448Z,23.25
2023-03-29T06:22:51.497Z,23.31
2023-03-29T06:26:51.530Z,23.37
2023-03-29T06:30:51.517Z,23.42
2023-03-29T06:34:51.018Z,23.20
2023-03-29T06:38:50.980Z,23.25
2023-03-29T06:42:51.062Z,23.36
2023-03-29T06:46:50.993Z,23.46
2023-03-29T06:50:50.965Z,23.45
2023-03-29T06:54:50.970Z,23.39
2023-03-29T06:58:51.001Z,23.33
2023-03-29T07:02:51.051Z,23.27
2023-03-29T07:06:50.980Z,23.23
2023-03-29T07:10:50.997Z,23.19
2023-03-29T07:14:50.997Z,23.16
2023-03-29T07:18:50.977Z,23.13
2023-03-29T07:22:51.586Z,23.10
2023-03-29T07:27:03.492Z,23.07
2023-03-29T07:30:51.660Z,23.05
2023-03-29T07:34:50.994Z,23.03
2023-03-29T07:38:51.010Z,23.02
2023-03-29T07:42:51.012Z,23.05
2023-03-29T07:46:51.037Z,23.16
2023-03-29T07:50:51.011Z,23.26
2023-03-29T07:54:50.984Z,23.29
2023-03-29T07:58:50.984Z,23.24
2023-03-29T08:02:51.092Z,23.20
2023-03-29T08:06:51.011Z,23.15
2023-03-29T08:10:50.994Z,23.12
2023-03-29T08:14:50.991Z,23.08
2023-03-29T08:18:52.607Z,23.06
2023-03-29T08:22:51.023Z,23.03
2023-03-29T08:26:50.748Z,23.01
2023-03-29T08:30:51.093Z,23.00
2023-03-29T08:34:50.490Z,23.00
2023-03-29T08:38:50.510Z,22.99
2023-03-29T08:42:50.511Z,22.98
2023-03-29T08:46:50.563Z,22.97
2023-03-29T08:50:50.505Z,22.96
2023-03-29T08:54:51.557Z,22.96
2023-03-29T08:58:50.518Z,22.96
2023-03-29T09:02:50.671Z,22.96
2023-03-29T09:06:50.580Z,22.96
2023-03-29T09:10:50.520Z,22.95
2023-03-29T09:14:51.036Z,22.95
2023-03-29T09:18:52.013Z,22.95
2023-03-29T09:22:50.935Z,22.96
2023-03-29T09:26:51.023Z,22.93
2023-03-29T09:30:51.539Z,21.25
2023-03-29T09:34:51.028Z,20.77
2023-03-29T09:38:51.173Z,20.67
2023-03-29T09:42:50.777Z,21.35
2023-03-29T09:46:51.037Z,21.92
2023-03-29T09:50:51.027Z,22.34
2023-03-29T09:54:51.076Z,22.67
2023-03-29T09:58:51.043Z,22.93
2023-03-29T10:02:51.562Z,23.12
2023-03-29T10:06:51.541Z,23.24
2023-03-29T10:10:51.577Z,23.35
2023-03-29T10:14:53.630Z,23.44
2023-03-29T10:18:50.962Z,23.51
2023-03-29T10:22:51.073Z,23.57
2023-03-29T10:26:51.078Z,23.63
2023-03-29T10:30:51.052Z,23.66
2023-03-29T10:34:50.557Z,23.72
2023-03-29T10:38:50.297Z,23.77
2023-03-29T10:42:50.580Z,23.78
2023-03-29T10:46:50.054Z,23.78
2023-03-29T10:50:50.055Z,23.77
2023-03-29T10:54:50.063Z,23.75
2023-03-29T10:58:50.080Z,23.73
2023-03-29T11:02:49.629Z,23.75
2023-03-29T11:06:49.562Z,23.81
2023-03-29T11:10:50.074Z,23.86
2023-03-29T11:14:49.733Z,23.82
2023-03-29T11:18:50.065Z,23.74
2023-03-29T11:22:50.074Z,23.66
2023-03-29T11:26:49.596Z,23.61
2023-03-29T11:30:49.481Z,23.54
2023-03-29T11:34:49.584Z,23.51
2023-03-29T11:38:49.573Z,23.50
2023-03-29T11:42:49.576Z,23.50
2023-03-29T11:46:49.229Z,23.49
2023-03-29T11:50:49.638Z,23.45
2023-03-29T11:54:49.127Z,23.51
2023-03-29T11:58:49.080Z,23.56
2023-03-29T12:02:49.250Z,23.67
2023-03-29T12:06:49.081Z,22.74
2023-03-29T12:10:49.615Z,20.84
2023-03-29T12:14:49.589Z,21.49
2023-03-29T12:18:49.635Z,22.13
2023-03-29T12:22:49.586Z,22.67
2023-03-29T12:26:49.588Z,23.04
2023-03-29T12:30:50.096Z,23.31
2023-03-29T12:34:49.628Z,23.52
2023-03-29T12:38:49.608Z,23.66
2023-03-29T12:42:49.625Z,23.75
2023-03-29T12:46:49.585Z,23.87
2023-03-29T12:50:50.148Z,23.95
2023-03-29T12:54:50.102Z,24.00
2023-03-29T12:58:50.132Z,23.37
2023-03-29T13:02:50.209Z,22.03
2023-03-29T13:06:51.661Z,22.17
2023-03-29T13:10:50.265Z,22.39
2023-03-29T13:14:50.614Z,22.65
2023-03-29T13:18:50.613Z,22.87
2023-03-29T13:22:50.144Z,23.10
2023-03-29T13:26:49.960Z,23.28
2023-03-29T13:30:50.184Z,23.42
2023-03-29T13:34:49.697Z,23.51
2023-03-29T13:38:49.644Z,23.56
2023-03-29T13:42:49.491Z,23.61
2023-03-29T13:46:49.684Z,23.68
2023-03-29T13:50:49.624Z,23.63
2023-03-29T13:54:49.718Z,23.55
2023-03-29T13:58:49.128Z,23.45
2023-03-29T14:02:49.613Z,23.35
2023-03-29T14:06:49.129Z,23.29
2023-03-29T14:10:49.160Z,23.25
2023-03-29T14:14:58.805Z,23.23
2023-03-29T14:18:49.132Z,23.20
2023-03-29T14:22:49.159Z,23.18
2023-03-29T14:26:48.732Z,23.16
2023-03-29T14:30:48.638Z,23.15
2023-03-29T14:34:48.639Z,23.14
2023-03-29T14:38:48.640Z,23.14
2023-03-29T14:42:48.792Z,23.14
2023-03-29T14:46:48.210Z,23.13
2023-03-29T14:50:48.113Z,23.13
2023-03-29T14:54:48.645Z,23.12
2023-03-29T14:58:48.335Z,23.11
2023-03-29T15:02:48.498Z,23.11
2023-03-29T15:06:48.650Z,23.10
2023-03-29T15:10:48.554Z,23.10
2023-03-29T15:14:48.703Z,23.09
2023-03-29T15:18:48.698Z,23.09
2023-03-29T15:22:49.166Z,23.08
2023-03-29T15:26:48.889Z,23.08
2023-03-29T15:30:57.358Z,23.07
2023-03-29T15:34:48.898Z,23.05
2023-03-29T15:38:48.786Z,23.05
2023-03-29T15:42:48.672Z,23.04
2023-03-29T15:46:48.666Z,23.03
2023-03-29T15:50:48.643Z,23.03
2023-03-29T15:54:48.708Z,23.03
2023-03-29T15:58:48.310Z,23.02
2023-03-29T16:02:48.362Z,23.02
2023-03-29T16:06:48.383Z,23.02
2023-03-29T16:10:48.488Z,23.00
2023-03-29T16:14:48.620Z,22.99
2023-03-29T16:18:48.871Z,22.98
2023-03-29T16:22:48.913Z,22.98
2023-03-29T16:26:49.038Z,22.98
2023-03-29T16:30:49.168Z,22.99
2023-03-29T16:34:49.313Z,23.09
2023-03-29T16:38:49.381Z,23.23
2023-03-29T16:42:49.348Z,23.35
2023-03-29T16:46:49.318Z,23.46
2023-03-29T16:50:49.503Z,23.55
2023-03-29T16:54:49.156Z,23.64
2023-03-29T16:58:49.123Z,23.67
2023-03-29T17:02:49.157Z,23.73
2023-03-29T17:06:49.286Z,23.75
2023-03-29T17:10:49.095Z,23.77
2023-03-29T17:14:48.992Z,23.80
2023-03-29T17:18:48.863Z,23.82
2023-03-29T17:22:48.804Z,23.80
2023-03-29T17:26:48.650Z,23.77
2023-03-29T17:30:48.599Z,23.76
2023-03-29T17:34:48.472Z,23.76
2023-03-29T17:38:48.535Z,23.72
2023-03-29T17:42:48.602Z,23.61
2023-03-29T17:46:48.609Z,23.52
2023-03-29T17:50:48.485Z,23.44
2023-03-29T17:54:48.464Z,23.39
2023-03-29T17:58:48.432Z,23.34
2023-03-29T18:02:48.551Z,23.31
2023-03-29T18:06:48.405Z,23.29
2023-03-29T18:10:48.414Z,23.25
2023-03-29T18:14:48.394Z,23.23
2023-03-29T18:18:48.409Z,23.22
2023-03-29T18:22:48.392Z,23.19
2023-03-29T18:26:48.415Z,23.18
2023-03-29T18:30:48.392Z,23.17
2023-03-29T18:34:48.412Z,23.15
2023-03-29T18:38:48.449Z,23.14
2023-03-29T18:42:48.516Z,23.12
2023-03-29T18:46:48.545Z,23.11
2023-03-29T18:50:48.606Z,23.10
2023-03-29T18:54:48.657Z,23.10
2023-03-29T18:58:48.738Z,23.09
2023-03-29T19:02:48.836Z,23.08
2023-03-29T19:06:48.838Z,23.07
2023-03-29T19:10:48.896Z,23.06
2023-03-29T19:14:48.988Z,23.06
2023-03-29T19:18:49.038Z,23.05
2023-03-29T19:22:49.112Z,23.05
2023-03-29T19:26:49.193Z,23.04
2023-03-29T19:30:49.420Z,23.03
2023-03-29T19:34:49.388Z,23.02
2023-03-29T19:38:49.491Z,23.00
2023-03-29T19:42:49.594Z,22.99
2023-03-29T19:46:49.744Z,22.98
2023-03-29T19:50:49.794Z,22.98
2023-03-29T19:54:49.877Z,22.99
2023-03-29T19:58:49.999Z,22.99
2023-03-29T20:02:50.215Z,22.99
2023-03-29T20:06:50.240Z,22.99
2023-03-29T20:10:50.337Z,22.97
2023-03-29T20:14:50.459Z,22.96
2023-03-29T20:18:50.608Z,22.95
2023-03-29T20:22:50.689Z,22.93
2023-03-29T20:26:50.830Z,22.92
2023-03-29T20:30:50.972Z,22.92
2023-03-29T20:34:51.104Z,22.91
2023-03-29T20:38:51.212Z,22.92
2023-03-29T20:42:51.354Z,22.91
2023-03-29T20:46:51.306Z,22.91
2023-03-29T20:50:51.217Z,22.91
2023-03-29T20:54:51.054Z,22.92
2023-03-29T20:58:50.960Z,22.92
2023-03-29T21:02:50.955Z,22.92
2023-03-29T21:06:50.788Z,22.92
2023-03-29T21:10:50.751Z,22.92
2023-03-29T21:14:50.894Z,22.92
2023-03-29T21:18:50.772Z,22.91
2023-03-29T21:22:50.636Z,22.92
2023-03-29T21:26:50.504Z,22.92
2023-03-29T21:30:50.397Z,22.90
2023-03-29T21:34:50.315Z,22.90
2023-03-29T21:38:50.268Z,22.90
2023-03-29T21:42:50.107Z,22.90
2023-03-29T21:46:50.263Z,22.90
2023-03-29T21:50:50.364Z,22.90
2023-03-29T21:54:50.266Z,22.90
2023-03-29T21:58:50.127Z,22.90
2023-03-29T22:02:50.069Z,22.89
2023-03-29T22:06:49.974Z,22.91
2023-03-29T22:10:49.929Z,22.90
2023-03-29T22:14:49.835Z,22.90
2023-03-29T22:18:49.828Z,22.89
2023-03-29T22:22:49.832Z,22.90
2023-03-29T22:26:49.994Z,22.89
2023-03-29T22:30:49.898Z,22.89
2023-03-29T22:34:49.784Z,22.89
2023-03-29T22:38:49.680Z,22.88
2023-03-29T22:42:49.632Z,22.88
2023-03-29T22:46:49.500Z,22.87
2023-03-29T22:50:49.379Z,22.87
2023-03-29T22:54:49.308Z,22.87
2023-03-29T22:58:49.479Z,22.87
2023-03-29T23:02:49.673Z,22.88
2023-03-29T23:56:49.401Z,22.43
